Time;durP1;ratioP1;P1;durP2;ratioP2;P2;SDS_P1;SDS_P2;PMS_P1;PMS_P2;Temp;Humidity;BMP_temperature;BMP_pressure;BME280_temperature;BME280_humidity;BME280_pressure;Samples;Min_cycle;Max_cycle;Signal;HPM_P1;HPM_P2
2022/07/19 00:00:20;;;;;;;8.57;1.75;;;11.70;99.40;;;;;;5003706;28;20034;-74
2022/07/19 00:02:47;;;;;;;7.70;2.13;;;11.80;99.10;;;;;;5000564;28;20819;-73
2022/07/19 00:05:15;;;;;;;5.40;1.42;;;11.90;99.90;;;;;;5011365;28;20105;-73
2022/07/19 00:07:44;;;;;;;3.20;1.20;;;12.00;99.90;;;;;;5004682;28;20056;-76
2022/07/19 00:10:13;;;;;;;10.77;3.05;;;12.10;99.90;;;;;;4999349;28;20771;-73
2022/07/19 00:12:41;;;;;;;6.22;1.60;;;12.20;99.80;;;;;;4998818;28;20065;-77
2022/07/19 00:15:11;;;;;;;5.75;1.25;;;12.30;99.60;;;;;;5003181;28;20029;-72
2022/07/19 00:17:44;;;;;;;6.93;1.67;;;12.40;99.70;;;;;;5014888;28;20470;-74
2022/07/19 00:20:12;;;;;;;;;;;12.40;99.70;;;;;;5011383;28;20038;-73
2022/07/19 00:22:39;;;;;;;6.95;1.58;;;12.40;99.90;;;;;;5001050;28;20611;-73
2022/07/19 00:25:08;;;;;;;6.38;1.77;;;12.50;99.90;;;;;;5018558;28;20061;-73
2022/07/19 00:27:35;;;;;;;8.73;1.63;;;12.60;99.90;;;;;;5002106;28;20026;-73
2022/07/19 00:30:05;;;;;;;5.88;1.95;;;12.60;99.90;;;;;;5013916;28;20048;-71
2022/07/19 00:32:33;;;;;;;9.57;1.98;;;12.70;99.70;;;;;;4990077;28;20477;-73
2022/07/19 00:35:00;;;;;;;6.82;1.85;;;12.80;99.40;;;;;;5005261;28;20497;-70
2022/07/19 00:37:27;;;;;;;8.10;1.38;;;13.00;99.30;;;;;;5021355;28;20862;-73
2022/07/19 00:39:55;;;;;;;7.35;1.35;;;13.00;99.20;;;;;;5016982;28;20047;-72
2022/07/19 00:42:22;;;;;;;7.63;1.90;;;13.10;98.90;;;;;;4992961;28;20010;-70
2022/07/19 00:44:49;;;;;;;8.50;1.83;;;13.20;98.60;;;;;;5001634;28;20483;-74
2022/07/19 00:47:17;;;;;;;7.60;1.42;;;13.30;99.30;;;;;;5003627;28;20053;-71
2022/07/19 00:49:44;;;;;;;6.20;1.23;;;13.40;99.90;;;;;;5001381;28;20091;-73
2022/07/19 00:52:13;;;;;;;4.78;1.77;;;13.30;99.90;;;;;;5000141;28;20033;-71
2022/07/19 00:54:41;;;;;;;9.07;1.73;;;13.40;99.90;;;;;;4990308;28;20104;-73
2022/07/19 00:57:10;;;;;;;5.82;1.70;;;13.30;99.90;;;;;;5008609;28;20038;-72
2022/07/19 00:59:37;;;;;;;8.60;2.92;;;13.30;99.90;;;;;;5001422;28;20040;-73
2022/07/19 01:02:05;;;;;;;8.80;2.85;;;13.30;99.90;;;;;;5005165;28;20030;-73
2022/07/19 01:04:33;;;;;;;10.73;1.92;;;13.20;99.90;;;;;;5013844;28;20040;-76
2022/07/19 01:07:00;;;;;;;7.28;2.20;;;13.30;99.90;;;;;;5002274;28;20034;-74
2022/07/19 01:09:28;;;;;;;5.38;1.50;;;13.40;99.90;;;;;;5001418;28;20203;-74
2022/07/19 01:11:57;;;;;;;7.50;2.42;;;13.50;99.90;;;;;;5003427;28;20018;-76
2022/07/19 01:14:24;;;;;;;2.38;1.02;;;13.60;99.90;;;;;;5004345;28;20052;-75
2022/07/19 01:16:51;;;;;;;8.45;1.30;;;13.60;99.40;;;;;;5011190;28;20021;-73
2022/07/19 01:19:19;;;;;;;7.25;2.33;;;13.70;99.00;;;;;;5017377;28;20036;-71
2022/07/19 01:21:46;;;;;;;7.72;1.25;;;13.70;99.00;;;;;;4989770;28;20088;-72
2022/07/19 01:24:13;;;;;;;5.00;1.30;;;13.70;99.20;;;;;;5027879;28;20038;-71
2022/07/19 01:26:41;;;;;;;8.23;0.90;;;13.70;99.90;;;;;;5005797;28;20025;-72
2022/07/19 01:29:08;;;;;;;3.45;1.50;;;13.70;99.90;;;;;;5016802;28;20041;-73
2022/07/19 01:31:38;;;;;;;6.43;1.15;;;13.70;99.90;;;;;;5004732;28;20071;-74
2022/07/19 01:34:06;;;;;;;5.88;2.83;;;13.70;99.90;;;;;;5006538;28;20076;-72
2022/07/19 01:36:33;;;;;;;4.75;1.25;;;13.80;99.90;;;;;;5004525;28;20025;-73
2022/07/19 01:39:00;;;;;;;4.07;2.03;;;13.80;99.90;;;;;;5003990;28;20759;-76
2022/07/19 01:41:28;;;;;;;6.45;2.70;;;13.80;99.90;;;;;;5005523;28;20013;-73
2022/07/19 01:43:55;;;;;;;8.45;2.33;;;13.80;99.90;;;;;;5018686;28;20025;-74
2022/07/19 01:46:22;;;;;;;7.32;2.10;;;13.80;99.90;;;;;;5011283;28;20022;-73
2022/07/19 01:48:49;;;;;;;3.05;1.42;;;13.80;99.90;;;;;;5004248;28;20042;-70
2022/07/19 01:51:17;;;;;;;6.90;1.67;;;13.80;99.90;;;;;;5002573;28;20050;-74
2022/07/19 01:53:44;;;;;;;5.97;0.90;;;13.90;99.90;;;;;;5004404;28;20044;-73
2022/07/19 01:56:11;;;;;;;7.28;1.73;;;13.90;99.90;;;;;;5006214;28;20029;-73
2022/07/19 01:58:38;;;;;;;7.88;2.15;;;14.00;99.90;;;;;;5011425;28;20046;-74
2022/07/19 02:01:06;;;;;;;10.05;1.75;;;14.20;99.90;;;;;;5020482;28;20111;-75
2022/07/19 02:03:33;;;;;;;6.18;1.52;;;14.20;99.90;;;;;;5009317;28;20026;-75
2022/07/19 02:06:01;;;;;;;8.57;3.33;;;14.20;99.70;;;;;;5011414;28;20028;-74
2022/07/19 02:08:28;;;;;;;11.35;3.05;;;14.30;99.40;;;;;;5006571;28;20706;-72
2022/07/19 02:10:55;;;;;;;6.63;2.15;;;14.40;99.30;;;;;;5003332;28;20037;-74
2022/07/19 02:13:23;;;;;;;5.32;2.00;;;14.50;99.50;;;;;;5001962;28;20109;-77
2022/07/19 02:15:50;;;;;;;11.23;2.13;;;14.50;99.70;;;;;;5003364;28;20513;-74
2022/07/19 02:18:17;;;;;;;8.38;1.40;;;14.40;99.50;;;;;;5004897;28;20434;-74
2022/07/19 02:20:45;;;;;;;6.80;1.60;;;14.40;99.20;;;;;;5003600;28;20037;-72
2022/07/19 02:23:12;;;;;;;9.88;1.45;;;14.20;99.30;;;;;;4984752;28;20105;-70
2022/07/19 02:25:39;;;;;;;8.20;1.40;;;14.10;99.30;;;;;;4986526;28;20096;-71
2022/07/19 02:28:06;;;;;;;6.05;1.95;;;14.10;99.40;;;;;;5003649;28;20036;-73
2022/07/19 02:30:34;;;;;;;5.45;1.83;;;14.10;99.30;;;;;;5018259;28;20033;-74
2022/07/19 02:33:01;;;;;;;6.28;1.70;;;14.10;99.50;;;;;;5003787;28;20038;-74
2022/07/19 02:35:28;;;;;;;5.25;1.63;;;14.10;99.80;;;;;;5000767;28;20029;-75
2022/07/19 02:37:56;;;;;;;8.70;3.03;;;14.00;99.90;;;;;;5003819;28;20077;-72
2022/07/19 02:40:23;;;;;;;8.20;3.38;;;14.00;99.90;;;;;;5000981;28;20180;-72
2022/07/19 02:42:50;;;;;;;8.60;2.42;;;14.00;99.90;;;;;;5013627;28;20025;-74
2022/07/19 02:45:17;;;;;;;4.63;1.70;;;14.00;99.90;;;;;;5002464;28;20024;-76
2022/07/19 02:47:46;;;;;;;6.28;1.40;;;14.00;99.90;;;;;;5002709;28;20034;-72
2022/07/19 02:50:14;;;;;;;5.47;1.85;;;13.90;99.90;;;;;;5001301;28;20037;-74
2022/07/19 02:52:41;;;;;;;5.60;1.50;;;13.90;99.90;;;;;;5001890;28;20022;-73
2022/07/19 02:55:09;;;;;;;5.25;1.60;;;13.80;99.90;;;;;;5004602;28;20111;-72
2022/07/19 02:57:36;;;;;;;8.30;2.70;;;13.90;99.90;;;;;;5021112;28;20057;-70
2022/07/19 03:00:09;;;;;;;8.20;2.90;;;13.90;99.90;;;;;;5011101;28;20041;-70
2022/07/19 03:02:37;;;;;;;7.10;1.80;;;13.70;99.90;;;;;;5011336;28;20034;-73
2022/07/19 03:05:04;;;;;;;9.20;1.80;;;13.80;99.90;;;;;;5019028;28;20037;-72
2022/07/19 03:07:32;;;;;;;7.40;2.35;;;13.80;99.90;;;;;;5001432;28;20050;-71
2022/07/19 03:09:59;;;;;;;7.18;1.48;;;13.80;99.90;;;;;;4998553;28;20100;-73
2022/07/19 03:12:26;;;;;;;4.95;1.10;;;13.80;99.90;;;;;;5000565;28;20196;-73
2022/07/19 03:14:54;;;;;;;8.25;1.80;;;13.80;99.90;;;;;;5002616;28;20087;-70
2022/07/19 03:17:21;;;;;;;4.57;1.30;;;13.80;99.90;;;;;;5000927;28;20065;-70
2022/07/19 03:19:48;;;;;;;10.65;4.03;;;13.60;99.90;;;;;;4997241;28;20029;-69
2022/07/19 03:22:16;;;;;;;8.93;2.78;;;13.60;99.90;;;;;;4993978;28;20168;-71
2022/07/19 03:24:43;;;;;;;12.32;4.45;;;13.50;99.90;;;;;;5009651;28;20024;-73
2022/07/19 03:27:11;;;;;;;8.57;2.05;;;13.30;99.90;;;;;;5022168;28;20087;-71
2022/07/19 03:29:38;;;;;;;8.15;2.00;;;13.20;99.90;;;;;;5003095;28;20022;-70
2022/07/19 03:32:05;;;;;;;4.10;1.95;;;13.20;99.90;;;;;;5003175;28;20052;-71
2022/07/19 03:34:33;;;;;;;9.65;3.08;;;13.10;99.90;;;;;;5004118;28;20028;-71
2022/07/19 03:37:00;;;;;;;5.70;1.83;;;13.10;99.90;;;;;;5001608;28;20026;-71
2022/07/19 03:39:27;;;;;;;7.57;1.98;;;13.10;99.90;;;;;;5009134;28;20025;-73
2022/07/19 03:41:54;;;;;;;5.65;1.77;;;13.20;99.90;;;;;;5001816;28;20026;-71
2022/07/19 03:44:22;;;;;;;7.88;1.88;;;13.30;99.90;;;;;;5001902;28;20045;-73
2022/07/19 03:46:49;;;;;;;6.10;1.60;;;13.40;99.90;;;;;;5001105;28;20021;-71
2022/07/19 03:49:16;;;;;;;5.55;1.55;;;13.50;99.90;;;;;;5000814;28;20069;-71
2022/07/19 03:51:44;;;;;;;4.95;1.65;;;13.50;99.90;;;;;;5000728;28;20029;-71
2022/07/19 03:54:11;;;;;;;5.55;1.30;;;13.60;99.90;;;;;;5002104;28;20482;-70
2022/07/19 03:56:38;;;;;;;10.23;1.75;;;13.50;99.90;;;;;;4999812;28;20100;-70
2022/07/19 03:59:05;;;;;;;7.32;2.38;;;13.40;99.90;;;;;;5003535;28;20398;-67
2022/07/19 04:01:33;;;;;;;4.53;1.60;;;13.20;99.90;;;;;;5008126;28;20095;-67
2022/07/19 04:04:00;;;;;;;7.90;2.08;;;13.20;99.90;;;;;;5003214;28;20386;-70
2022/07/19 04:06:27;;;;;;;6.80;2.17;;;13.20;99.90;;;;;;5001100;28;20092;-70
2022/07/19 04:08:54;;;;;;;4.20;1.80;;;13.20;99.90;;;;;;5001267;28;20092;-68
2022/07/19 04:11:22;;;;;;;6.53;2.58;;;13.00;99.90;;;;;;5001753;28;20025;-71
2022/07/19 04:13:49;;;;;;;7.55;3.22;;;13.00;99.90;;;;;;5009820;28;20033;-70
2022/07/19 04:16:17;;;;;;;3.50;0.95;;;12.80;99.90;;;;;;5008195;28;20030;-70
2022/07/19 04:18:44;;;;;;;4.63;1.05;;;12.70;99.90;;;;;;5010905;28;20486;-71
2022/07/19 04:21:11;;;;;;;4.75;1.00;;;12.60;99.90;;;;;;5002225;28;20666;-72
2022/07/19 04:23:38;;;;;;;3.67;0.93;;;12.60;99.90;;;;;;4999576;28;20324;-69
2022/07/19 04:26:06;;;;;;;5.60;1.00;;;12.50;99.90;;;;;;5010194;28;20839;-69
2022/07/19 04:28:33;;;;;;;4.38;1.13;;;12.30;99.90;;;;;;5007356;28;20040;-68
2022/07/19 04:31:00;;;;;;;5.75;1.83;;;12.30;99.90;;;;;;5000007;28;20037;-70
2022/07/19 04:33:28;;;;;;;7.32;2.60;;;12.30;99.90;;;;;;5001789;28;20105;-68
2022/07/19 04:35:55;;;;;;;7.47;2.85;;;12.30;99.90;;;;;;4999693;28;20118;-70
2022/07/19 04:38:23;;;;;;;8.10;3.85;;;12.30;99.90;;;;;;5015332;28;20061;-71
2022/07/19 04:40:50;;;;;;;10.30;4.88;;;12.30;99.90;;;;;;5005280;28;20498;-70
2022/07/19 04:43:18;;;;;;;9.02;4.07;;;12.50;99.90;;;;;;5016705;28;20491;-71
2022/07/19 04:45:45;;;;;;;11.25;5.22;;;12.60;99.90;;;;;;5003028;28;20057;-71
2022/07/19 04:48:13;;;;;;;6.85;2.60;;;12.70;99.90;;;;;;5007464;28;20075;-70
2022/07/19 04:50:41;;;;;;;9.05;2.08;;;12.80;99.90;;;;;;5002879;28;20037;-68
2022/07/19 04:53:09;;;;;;;4.97;1.25;;;12.70;99.90;;;;;;5003171;28;20124;-72
2022/07/19 04:55:40;;;;;;;7.47;1.98;;;12.60;99.90;;;;;;5004040;28;20024;-68
2022/07/19 04:58:07;;;;;;;5.70;1.88;;;12.50;99.90;;;;;;5002331;28;20470;-70
2022/07/19 05:00:34;;;;;;;4.75;2.08;;;12.40;99.90;;;;;;5004110;28;20121;-70
2022/07/19 05:03:02;;;;;;;4.03;1.90;;;12.40;99.90;;;;;;5003387;28;20060;-70
2022/07/19 05:05:32;;;;;;;5.75;1.30;;;12.30;99.90;;;;;;5006518;28;20511;-73
2022/07/19 05:08:00;;;;;;;5.93;1.80;;;12.30;99.90;;;;;;5006057;28;20391;-70
2022/07/19 05:10:27;;;;;;;4.50;1.30;;;12.30;99.90;;;;;;5003779;28;20068;-73
2022/07/19 05:12:54;;;;;;;7.50;1.40;;;12.20;99.90;;;;;;5003772;28;20065;-72
2022/07/19 05:15:21;;;;;;;5.47;1.45;;;12.10;99.90;;;;;;5001606;28;20022;-71
2022/07/19 05:17:49;;;;;;;8.80;2.50;;;12.10;99.90;;;;;;5008418;28;20028;-77
2022/07/19 05:20:16;;;;;;;9.05;2.72;;;12.00;99.90;;;;;;5004534;28;20030;-70
2022/07/19 05:22:45;;;;;;;7.57;2.10;;;12.10;99.90;;;;;;5003126;28;20026;-69
2022/07/19 05:25:12;;;;;;;10.07;2.47;;;12.10;99.90;;;;;;5005225;28;20161;-70
2022/07/19 05:27:39;;;;;;;9.80;2.72;;;12.20;99.90;;;;;;5008481;28;20028;-70
2022/07/19 05:30:07;;;;;;;6.95;2.33;;;12.20;99.90;;;;;;5016167;28;20038;-71
2022/07/19 05:32:34;;;;;;;6.80;2.38;;;12.20;99.90;;;;;;5008254;28;20018;-70
2022/07/19 05:35:02;;;;;;;6.65;1.90;;;12.30;99.90;;;;;;5007653;28;20030;-69
2022/07/19 05:37:29;;;;;;;7.07;1.40;;;12.40;99.90;;;;;;5022766;28;20025;-71
2022/07/19 05:39:57;;;;;;;5.28;1.27;;;12.40;99.90;;;;;;5004467;28;20445;-72
2022/07/19 05:42:25;;;;;;;6.55;1.52;;;12.40;99.90;;;;;;5001943;28;20018;-69
2022/07/19 05:44:53;;;;;;;9.27;1.70;;;12.40;99.90;;;;;;5005026;28;20017;-73
2022/07/19 05:47:20;;;;;;;4.75;1.40;;;12.30;99.90;;;;;;5000587;28;20109;-70
2022/07/19 05:49:48;;;;;;;6.53;1.70;;;12.20;99.90;;;;;;5004626;28;20121;-73
2022/07/19 05:52:15;;;;;;;3.78;1.27;;;12.10;99.90;;;;;;5002108;28;20028;-69
2022/07/19 05:54:42;;;;;;;2.42;0.98;;;12.00;99.90;;;;;;5002895;28;20479;-69
2022/07/19 05:57:10;;;;;;;5.20;1.55;;;12.00;99.90;;;;;;5001457;28;20080;-72
2022/07/19 05:59:37;;;;;;;7.05;1.17;;;12.00;99.90;;;;;;4998019;28;20112;-69
2022/07/19 06:02:04;;;;;;;11.68;4.75;;;11.90;99.90;;;;;;4982981;28;20101;-71
2022/07/19 06:04:32;;;;;;;7.68;3.60;;;12.00;99.90;;;;;;4997856;28;20018;-70
2022/07/19 06:06:59;;;;;;;14.70;3.03;;;12.00;99.90;;;;;;5017381;28;20103;-70
2022/07/19 06:09:26;;;;;;;10.32;2.10;;;11.90;99.90;;;;;;4999694;28;20049;-68
2022/07/19 06:11:54;;;;;;;5.65;2.03;;;11.90;99.90;;;;;;4991158;28;20382;-69
2022/07/19 06:14:21;;;;;;;12.00;2.33;;;11.90;99.90;;;;;;5002051;28;20080;-67
2022/07/19 06:16:49;;;;;;;9.20;2.05;;;12.00;99.90;;;;;;5013373;28;20511;-68
2022/07/19 06:19:16;;;;;;;12.07;5.15;;;12.00;99.90;;;;;;4994877;28;20034;-68
2022/07/19 06:21:43;;;;;;;15.10;4.90;;;11.90;99.90;;;;;;5003776;28;20208;-67
2022/07/19 06:24:11;;;;;;;6.60;3.33;;;11.90;99.90;;;;;;5001245;28;20116;-67
2022/07/19 06:26:38;;;;;;;12.68;5.28;;;11.90;99.90;;;;;;5001822;28;20493;-68
2022/07/19 06:29:06;;;;;;;13.35;4.30;;;12.00;99.90;;;;;;5002596;28;20033;-70
2022/07/19 06:31:33;;;;;;;10.18;3.80;;;11.90;99.90;;;;;;5001021;28;20064;-71
2022/07/19 06:34:01;;;;;;;9.88;4.70;;;11.80;99.90;;;;;;5002246;28;20029;-68
2022/07/19 06:36:28;;;;;;;7.53;3.05;;;11.80;99.90;;;;;;5002739;28;20425;-71
2022/07/19 06:38:55;;;;;;;8.38;2.45;;;11.80;99.90;;;;;;5002214;28;20028;-69
2022/07/19 06:41:23;;;;;;;10.07;2.85;;;11.80;99.90;;;;;;5003014;28;20477;-68
2022/07/19 06:43:50;;;;;;;7.38;2.72;;;11.70;99.90;;;;;;5002543;28;20014;-69
2022/07/19 06:46:17;;;;;;;30.88;23.05;;;11.70;99.90;;;;;;5002848;28;20034;-70
2022/07/19 06:48:45;;;;;;;8.82;2.95;;;11.70;99.90;;;;;;5000325;28;20026;-71
2022/07/19 06:51:12;;;;;;;43.00;36.55;;;11.80;99.90;;;;;;5002072;28;20021;-72
2022/07/19 06:53:39;;;;;;;39.15;33.30;;;11.80;99.90;;;;;;5003612;28;20017;-73
2022/07/19 06:56:07;;;;;;;24.95;19.10;;;11.70;99.90;;;;;;4999015;28;20033;-74
2022/07/19 06:58:34;;;;;;;19.50;11.07;;;11.70;99.90;;;;;;5002565;28;20467;-71
2022/07/19 07:01:03;;;;;;;13.63;5.97;;;11.70;99.90;;;;;;5000149;28;20784;-71
2022/07/19 07:03:30;;;;;;;11.88;3.95;;;11.70;99.90;;;;;;5002704;28;20394;-70
2022/07/19 07:05:57;;;;;;;11.52;6.38;;;11.60;99.90;;;;;;5001227;28;20522;-70
2022/07/19 07:08:24;;;;;;;18.35;15.43;;;11.70;99.90;;;;;;5001498;28;20023;-72
2022/07/19 07:10:52;;;;;;;15.63;7.97;;;11.70;99.90;;;;;;4999069;28;20673;-70
2022/07/19 07:13:19;;;;;;;11.32;6.57;;;11.60;99.90;;;;;;5001359;28;20084;-69
2022/07/19 07:15:50;;;;;;;9.68;4.03;;;11.60;99.90;;;;;;5001747;28;20068;-70
2022/07/19 07:18:17;;;;;;;8.07;2.10;;;11.50;99.90;;;;;;4999664;28;20076;-72
2022/07/19 07:20:44;;;;;;;7.03;3.10;;;11.60;99.90;;;;;;5000589;28;20026;-73
2022/07/19 07:23:12;;;;;;;7.68;2.92;;;11.50;99.90;;;;;;5032091;28;20459;-73
2022/07/19 07:25:39;;;;;;;6.85;2.67;;;11.50;99.90;;;;;;5001331;28;20030;-73
2022/07/19 07:28:06;;;;;;;6.35;2.00;;;11.40;99.90;;;;;;5014211;28;20618;-75
2022/07/19 07:30:33;;;;;;;6.55;2.13;;;11.50;99.90;;;;;;5009270;28;20045;-74
2022/07/19 07:33:01;;;;;;;8.32;4.45;;;11.40;99.90;;;;;;5001111;28;20022;-71
2022/07/19 07:35:28;;;;;;;7.28;3.15;;;11.40;99.90;;;;;;5000815;28;20022;-73
2022/07/19 07:37:55;;;;;;;9.00;4.13;;;11.40;99.90;;;;;;5001055;28;20030;-73
2022/07/19 07:40:23;;;;;;;5.75;1.60;;;11.30;99.90;;;;;;5001789;28;20049;-72
2022/07/19 07:42:50;;;;;;;5.60;1.38;;;11.30;99.90;;;;;;5005708;28;20025;-70
2022/07/19 07:45:18;;;;;;;5.15;1.80;;;11.30;99.90;;;;;;5014530;28;20026;-70
2022/07/19 07:47:45;;;;;;;5.50;1.63;;;11.30;99.90;;;;;;5010764;28;20025;-71
2022/07/19 07:50:12;;;;;;;9.45;6.38;;;11.20;99.90;;;;;;5016703;28;20084;-71
2022/07/19 07:52:40;;;;;;;4.78;2.92;;;11.30;99.90;;;;;;5010015;28;20039;-72
2022/07/19 07:55:07;;;;;;;6.32;2.92;;;11.30;99.90;;;;;;4998834;28;20026;-70
2022/07/19 07:57:35;;;;;;;7.28;3.85;;;11.20;99.90;;;;;;5001811;28;20054;-69
2022/07/19 08:00:04;;;;;;;11.30;8.50;;;11.30;99.90;;;;;;5014475;28;20021;-72
2022/07/19 08:02:33;;;;;;;7.93;3.40;;;11.20;99.90;;;;;;5012103;28;20026;-71
2022/07/19 08:05:00;;;;;;;7.30;3.40;;;11.20;99.90;;;;;;5000004;28;20129;-70
2022/07/19 08:07:28;;;;;;;14.55;9.70;;;11.20;99.90;;;;;;5002445;28;20415;-71
2022/07/19 08:09:57;;;;;;;10.68;5.40;;;11.30;99.90;;;;;;5014404;28;20046;-70
2022/07/19 08:12:24;;;;;;;10.07;4.05;;;11.30;99.90;;;;;;5006798;28;20033;-70
2022/07/19 08:14:52;;;;;;;10.77;4.38;;;11.30;99.90;;;;;;5001918;28;20588;-69
2022/07/19 08:17:19;;;;;;;9.93;6.63;;;11.30;99.90;;;;;;5001406;28;20026;-68
2022/07/19 08:19:47;;;;;;;10.50;3.65;;;11.30;99.90;;;;;;4998811;28;20022;-69
2022/07/19 08:22:20;;;;;;;9.70;4.03;;;11.40;99.90;;;;;;5001681;28;20029;-69
2022/07/19 08:24:48;;;;;;;4.80;2.45;;;11.30;99.90;;;;;;4999300;28;20507;-69
2022/07/19 08:27:15;;;;;;;8.48;3.60;;;11.30;99.90;;;;;;5014140;28;20505;-70
2022/07/19 08:29:42;;;;;;;8.00;2.08;;;11.20;99.90;;;;;;5020672;28;20706;-70
2022/07/19 08:32:10;;;;;;;6.30;2.63;;;11.20;99.90;;;;;;5017031;28;20434;-69
2022/07/19 08:34:37;;;;;;;4.82;2.55;;;11.10;99.90;;;;;;5001858;28;20032;-69
2022/07/19 08:37:04;;;;;;;27.60;21.67;;;11.20;99.90;;;;;;5003352;28;20025;-68
2022/07/19 08:39:32;;;;;;;13.43;10.40;;;11.20;99.90;;;;;;5020952;28;20121;-70
2022/07/19 08:41:59;;;;;;;9.13;4.88;;;11.10;99.90;;;;;;5016761;28;20108;-67
2022/07/19 08:44:27;;;;;;;8.68;3.63;;;11.10;99.90;;;;;;5001681;28;20033;-70
2022/07/19 08:46:55;;;;;;;7.93;5.63;;;11.10;99.90;;;;;;4999935;28;20018;-68
2022/07/19 08:49:23;;;;;;;5.97;4.03;;;11.10;99.90;;;;;;5020921;28;20126;-68
2022/07/19 08:51:51;;;;;;;11.60;7.25;;;11.10;99.90;;;;;;5017931;28;20024;-68
2022/07/19 08:54:19;;;;;;;9.00;5.20;;;11.10;99.90;;;;;;5016982;28;20105;-68
2022/07/19 08:59:33;;;;;;;11.80;9.55;;;11.10;99.90;;;;;;5005731;28;20209;-69
2022/07/19 09:02:01;;;;;;;11.93;5.88;;;11.10;99.90;;;;;;5019222;28;20390;-69
2022/07/19 09:04:30;;;;;;;9.50;5.57;;;11.00;99.90;;;;;;5015675;28;20030;-68
2022/07/19 09:06:59;;;;;;;10.10;5.18;;;11.00;99.90;;;;;;5000007;28;20424;-68
2022/07/19 09:09:31;;;;;;;7.57;5.90;;;11.00;99.90;;;;;;5034699;28;20056;-72
2022/07/19 09:11:59;;;;;;;;;;;10.90;99.90;;;;;;5020634;28;20093;-69
2022/07/19 09:14:37;;;;;;;8.60;4.38;;;11.00;99.90;;;;;;5014457;28;19907;-70
2022/07/19 09:17:06;;;;;;;26.63;20.75;;;11.00;99.90;;;;;;5000265;28;20033;-70
2022/07/19 09:19:36;;;;;;;25.60;20.73;;;11.00;99.90;;;;;;5001375;28;20022;-69
2022/07/19 09:22:10;;;;;;;8.68;4.80;;;11.00;99.90;;;;;;4988018;28;20038;-70
2022/07/19 09:24:41;;;;;;;7.05;3.88;;;11.00;99.90;;;;;;4988628;28;20064;-69
2022/07/19 09:27:17;;;;;;;9.32;5.07;;;10.90;99.90;;;;;;5002147;28;20028;-69
2022/07/19 09:29:46;;;;;;;9.82;7.53;;;10.90;99.90;;;;;;5016156;28;20048;-68
2022/07/19 09:32:16;;;;;;;9.25;5.57;;;10.90;99.90;;;;;;5022103;28;20052;-68
2022/07/19 09:34:55;;;;;;;10.65;4.43;;;10.90;99.90;;;;;;5017446;28;20076;-70
2022/07/19 09:37:26;;;;;;;7.10;4.47;;;10.90;99.90;;;;;;5003840;28;20037;-70
2022/07/19 09:39:55;;;;;;;10.57;4.40;;;10.90;99.90;;;;;;5004073;28;20105;-71
2022/07/19 09:42:25;;;;;;;12.32;5.22;;;10.90;99.90;;;;;;5011427;28;20022;-70
2022/07/19 09:45:20;;;;;;;9.18;5.90;;;10.80;99.90;;;;;;5013851;28;20018;-69
2022/07/19 09:47:50;;;;;;;20.40;12.68;;;10.90;99.90;;;;;;4984797;28;20034;-70
2022/07/19 09:50:21;;;;;;;9.02;5.75;;;10.80;99.90;;;;;;5015576;28;20083;-70
2022/07/19 09:52:50;;;;;;;10.77;5.57;;;10.70;99.90;;;;;;5016521;28;20034;-69
2022/07/19 09:55:18;;;;;;;21.45;13.13;;;10.80;99.90;;;;;;5011849;28;20013;-69
2022/07/19 09:57:50;;;;;;;20.15;13.88;;;10.80;99.90;;;;;;5008562;28;20157;-71
2022/07/19 10:00:20;;;;;;;11.77;8.63;;;10.80;99.90;;;;;;5004255;28;20379;-70
2022/07/19 10:02:59;;;;;;;17.08;9.25;;;10.70;99.90;;;;;;5007381;28;20025;-68
2022/07/19 10:05:29;;;;;;;8.13;4.40;;;10.70;99.90;;;;;;5003371;28;20038;-70
2022/07/19 10:07:57;;;;;;;7.97;5.20;;;10.80;99.90;;;;;;5005035;28;20017;-70
2022/07/19 10:10:30;;;;;;;25.23;22.35;;;10.70;99.90;;;;;;5002989;28;20037;-69
2022/07/19 10:12:58;;;;;;;127.80;114.50;;;10.80;99.90;;;;;;5003885;28;20482;-68
2022/07/19 10:15:27;;;;;;;46.88;41.58;;;10.80;99.90;;;;;;5003008;28;20058;-70
2022/07/19 10:18:14;;;;;;;10.05;7.10;;;10.70;99.90;;;;;;5004116;28;20080;-69
2022/07/19 10:20:47;;;;;;;50.80;42.25;;;10.70;99.90;;;;;;5006842;28;20096;-73
2022/07/19 10:23:14;;;;;;;28.80;25.55;;;10.70;99.90;;;;;;5022897;28;20106;-71
2022/07/19 10:25:46;;;;;;;14.32;9.77;;;10.70;99.90;;;;;;5007915;28;20104;-72
2022/07/19 10:28:32;;;;;;;13.30;5.82;;;10.70;99.90;;;;;;4982211;28;20041;-71
2022/07/19 10:30:59;;;;;;;10.27;7.20;;;10.70;99.90;;;;;;4983011;28;20035;-70
2022/07/19 10:33:32;;;;;;;10.80;6.68;;;10.70;99.90;;;;;;4981903;28;20050;-70
2022/07/19 10:36:31;;;;;;;15.38;10.45;;;10.80;99.90;;;;;;5000334;28;20088;-68
2022/07/19 10:39:35;;;;;;;10.27;5.40;;;10.80;99.90;;;;;;5000698;28;20022;-70
2022/07/19 10:42:08;;;;;;;12.82;5.20;;;10.80;99.90;;;;;;5016309;28;20025;-71
2022/07/19 10:44:57;;;;;;;10.80;5.30;;;10.80;99.90;;;;;;5008370;28;20075;-71
2022/07/19 10:47:38;;;;;;;12.00;7.68;;;10.80;99.90;;;;;;5020292;28;20034;-69
2022/07/19 10:50:08;;;;;;;7.80;4.35;;;10.80;99.90;;;;;;5013003;28;20129;-70
2022/07/19 10:52:40;;;;;;;9.45;6.90;;;10.80;99.90;;;;;;5015285;28;20418;-70
2022/07/19 10:55:25;;;;;;;6.85;4.35;;;10.90;99.90;;;;;;5000233;28;20149;-71
2022/07/19 10:57:53;;;;;;;8.25;5.82;;;10.90;99.90;;;;;;5002093;28;20483;-71
2022/07/19 11:00:26;;;;;;;11.52;5.25;;;10.90;99.90;;;;;;5006322;28;20045;-70
2022/07/19 11:03:22;;;;;;;8.82;5.22;;;10.80;99.90;;;;;;5021349;28;20104;-70
2022/07/19 11:05:59;;;;;;;8.52;4.03;;;10.80;99.90;;;;;;5005602;28;20036;-70
2022/07/19 11:08:39;;;;;;;7.35;3.92;;;10.80;99.90;;;;;;4995063;28;20550;-71
2022/07/19 11:11:06;;;;;;;7.88;4.97;;;10.70;99.90;;;;;;5033712;28;20046;-70
2022/07/19 11:13:35;;;;;;;10.93;4.65;;;10.80;99.90;;;;;;5002403;28;20018;-71
2022/07/19 11:16:03;;;;;;;10.32;4.68;;;10.80;99.90;;;;;;5002818;28;20042;-70
2022/07/19 11:18:32;;;;;;;9.38;5.43;;;10.80;99.90;;;;;;5001695;28;20025;-71
2022/07/19 11:21:04;;;;;;;8.43;5.10;;;10.80;99.90;;;;;;5012766;28;20036;-70
2022/07/19 11:23:35;;;;;;;9.02;5.30;;;10.80;99.90;;;;;;5022203;28;20025;-72
2022/07/19 11:26:14;;;;;;;8.93;5.38;;;10.70;99.90;;;;;;5002859;28;20034;-71
2022/07/19 11:28:43;;;;;;;10.15;5.03;;;10.70;99.90;;;;;;4999331;28;20026;-70
2022/07/19 11:31:18;;;;;;;13.23;5.22;;;10.70;99.90;;;;;;5000932;28;20065;-71
2022/07/19 11:33:47;;;;;;;8.43;4.95;;;10.70;99.90;;;;;;4997684;28;20096;-71
2022/07/19 11:36:17;;;;;;;9.55;5.68;;;10.70;99.90;;;;;;4999792;28;20026;-69
2022/07/19 11:38:48;;;;;;;12.35;5.63;;;10.60;99.90;;;;;;4998350;28;20491;-70
2022/07/19 11:41:20;;;;;;;11.45;5.00;;;10.50;99.90;;;;;;5002631;28;20506;-70
2022/07/19 11:44:03;;;;;;;12.30;6.53;;;10.60;99.90;;;;;;5000608;28;20033;-70
2022/07/19 11:46:42;;;;;;;12.63;7.18;;;10.60;99.90;;;;;;5001830;28;20112;-70
2022/07/19 11:49:13;;;;;;;10.73;6.53;;;10.50;99.90;;;;;;5001115;28;20359;-71
2022/07/19 11:51:40;;;;;;;11.05;7.13;;;10.50;99.90;;;;;;5018214;28;20026;-72
2022/07/19 11:54:09;;;;;;;9.55;5.55;;;10.30;99.90;;;;;;5016199;28;20030;-70
2022/07/19 11:56:37;;;;;;;14.02;7.32;;;10.30;99.90;;;;;;5015182;28;20033;-70
2022/07/19 11:59:08;;;;;;;11.48;6.72;;;10.30;99.90;;;;;;5019521;28;20087;-69
2022/07/19 12:01:38;;;;;;;10.55;8.75;;;10.20;99.90;;;;;;5002717;28;20030;-69
2022/07/19 12:04:13;;;;;;;9.52;6.07;;;10.20;99.90;;;;;;5017639;28;20028;-69
2022/07/19 12:06:43;;;;;;;14.60;7.53;;;10.20;99.90;;;;;;5002077;28;20025;-70
2022/07/19 12:09:13;;;;;;;11.65;6.32;;;10.20;99.90;;;;;;5001487;28;20848;-70
2022/07/19 12:11:44;;;;;;;10.77;6.25;;;10.20;99.90;;;;;;5002181;28;20026;-72
2022/07/19 12:14:21;;;;;;;8.95;6.28;;;10.20;99.90;;;;;;5004896;28;20026;-70
2022/07/19 12:16:50;;;;;;;11.50;6.53;;;10.20;99.90;;;;;;5021004;28;20029;-73
2022/07/19 12:19:19;;;;;;;10.95;6.88;;;10.30;99.90;;;;;;5022048;28;20052;-70
2022/07/19 12:21:47;;;;;;;11.68;6.47;;;10.30;99.90;;;;;;5001181;28;20564;-72
2022/07/19 12:24:18;;;;;;;13.00;6.80;;;10.30;99.90;;;;;;5001834;28;20030;-72
2022/07/19 12:27:18;;;;;;;9.48;6.55;;;10.30;99.90;;;;;;5001633;28;20563;-71
2022/07/19 12:29:49;;;;;;;9.80;6.65;;;10.30;99.90;;;;;;5010581;28;20045;-70
2022/07/19 12:32:30;;;;;;;10.07;6.28;;;10.40;99.90;;;;;;5000936;28;20471;-72
2022/07/19 12:35:04;;;;;;;12.32;7.20;;;10.30;99.90;;;;;;5000049;28;20030;-70
2022/07/19 12:37:39;;;;;;;10.18;6.65;;;10.30;99.90;;;;;;5001512;28;20037;-70
2022/07/19 12:40:19;;;;;;;13.82;8.60;;;10.30;99.90;;;;;;5002717;28;20763;-70
2022/07/19 12:43:02;;;;;;;12.25;7.28;;;10.30;99.90;;;;;;5021189;28;20049;-72
2022/07/19 12:45:46;;;;;;;12.38;7.07;;;10.20;99.90;;;;;;5006904;28;20022;-70
2022/07/19 12:48:17;;;;;;;13.85;6.80;;;10.20;99.90;;;;;;5000181;28;20029;-70
2022/07/19 12:50:50;;;;;;;7.72;6.20;;;10.20;99.90;;;;;;5001060;28;20045;-70
2022/07/19 12:53:18;;;;;;;11.52;7.38;;;10.20;99.90;;;;;;5000382;28;20046;-70
2022/07/19 12:55:46;;;;;;;11.45;6.28;;;10.20;99.90;;;;;;5000917;28;20045;-70